Terminal Aerodrome Forecast
Issued by NWS Newport/Morehead City, NC

Home | Current Version | Previous Version | Graphics & Text | Print | Product List | Glossary On
Versions: 1 2 3 4 5 6 7 8 9 10 11 12 13 14 15 16 17 18 19
000
FTUS42 KMHX 031137
TAFEWN
TAF
KEWN 031137Z 0312/0412 06007KT P6SM SCT025 BKN040
     FM031430 08005KT P6SM VCSH SCT010 OVC025
     FM040000 19010KT 4SM BR OVC005 WS015/22040KT=

USA.gov is the U.S. government's official web portal to all federal, state and local government web resources and services.